Time;durP1;ratioP1;P1;durP2;ratioP2;P2;SDS_P1;SDS_P2;PMS_P1;PMS_P2;Temp;Humidity;BMP_temperature;BMP_pressure;BME280_temperature;BME280_humidity;BME280_pressure;Samples;Min_cycle;Max_cycle;Signal;HPM_P1;HPM_P2
2023/12/06 00:01:23;;;;;;;22.33;16.00;;;;;;;16.82;42.18;92714.81;4927722;28;20050;-89
2023/12/06 00:03:49;;;;;;;22.48;15.93;;;;;;;16.78;42.48;92709.66;4934813;28;20541;-90
2023/12/06 00:06:14;;;;;;;21.10;15.02;;;;;;;16.85;41.91;92708.31;4930885;28;20046;-89
2023/12/06 00:08:41;;;;;;;21.77;15.55;;;;;;;16.81;41.87;92707.88;4937273;28;20137;-89
2023/12/06 00:11:06;;;;;;;19.52;15.05;;;;;;;16.76;42.17;92709.44;4909000;28;20085;-89
2023/12/06 00:13:31;;;;;;;19.20;13.85;;;;;;;16.85;41.76;92703.59;4897452;28;20043;-90
2023/12/06 00:15:57;;;;;;;21.25;15.38;;;;;;;16.73;41.99;92699.53;4909981;28;20299;-90
2023/12/06 00:18:22;;;;;;;19.15;15.02;;;;;;;16.77;42.38;92697.25;4890659;28;20886;-90
2023/12/06 00:20:48;;;;;;;19.45;14.93;;;;;;;16.76;41.95;92696.50;4903095;28;20082;-90
2023/12/06 00:23:13;;;;;;;19.60;14.20;;;;;;;16.75;42.16;92708.69;4925473;28;20042;-90
2023/12/06 00:25:39;;;;;;;20.08;14.73;;;;;;;16.74;42.54;92707.22;4906320;28;20057;-89
2023/12/06 00:28:04;;;;;;;20.75;15.45;;;;;;;16.77;41.92;92703.44;4907334;28;20080;-89
2023/12/06 00:30:30;;;;;;;18.88;14.60;;;;;;;16.79;42.01;92709.13;4895802;28;20039;-90
2023/12/06 00:32:55;;;;;;;19.95;13.80;;;;;;;16.82;42.17;92703.91;4907480;28;20143;-89
2023/12/06 00:35:21;;;;;;;21.65;14.20;;;;;;;16.86;41.64;92702.34;4948633;28;20470;-89
2023/12/06 00:37:46;;;;;;;16.60;12.73;;;;;;;16.81;41.64;92702.41;4968000;28;20511;-89
2023/12/06 00:40:12;;;;;;;20.23;14.40;;;;;;;16.81;42.04;92696.97;4961151;28;20088;-90
2023/12/06 00:42:37;;;;;;;19.08;13.27;;;;;;;16.87;41.53;92695.63;4970098;28;20043;-90
2023/12/06 00:45:03;;;;;;;18.52;13.63;;;;;;;16.86;41.70;92698.88;4972701;28;20032;-90
2023/12/06 00:47:29;;;;;;;18.73;13.57;;;;;;;16.81;41.64;92694.22;4967392;28;20688;-89
2023/12/06 00:49:54;;;;;;;21.35;14.60;;;;;;;16.74;42.44;92698.28;4970541;28;20740;-89
2023/12/06 00:52:20;;;;;;;17.20;13.52;;;;;;;16.73;41.81;92705.72;4988236;28;20052;-90
2023/12/06 00:54:47;;;;;;;20.63;13.90;;;;;;;16.76;42.08;92701.97;4977583;28;20044;-89
2023/12/06 00:57:13;;;;;;;16.60;13.38;;;;;;;16.72;42.32;92701.53;5011017;28;20151;-90
2023/12/06 00:59:39;;;;;;;19.67;13.35;;;;;;;16.79;41.95;92700.94;5019873;28;20215;-90
2023/12/06 01:02:04;;;;;;;17.60;13.02;;;;;;;16.75;41.96;92700.50;5001824;28;20039;-90
2023/12/06 01:04:30;;;;;;;18.60;13.18;;;;;;;16.76;42.08;92699.25;5002777;28;20059;-89
2023/12/06 01:06:55;;;;;;;16.05;12.38;;;;;;;16.83;41.97;92697.94;5012367;28;20127;-89
2023/12/06 01:09:21;;;;;;;18.55;12.38;;;;;;;16.89;41.53;92698.56;4985041;28;20856;-89
2023/12/06 01:11:46;;;;;;;18.67;13.82;;;;;;;16.79;42.39;92694.75;4973005;28;20140;-89
2023/12/06 01:14:12;;;;;;;15.60;13.00;;;;;;;16.69;42.33;92696.38;4971879;28;20032;-89
2023/12/06 01:16:37;;;;;;;17.67;12.10;;;;;;;16.79;41.65;92703.69;4989105;28;20126;-90
2023/12/06 01:19:03;;;;;;;17.60;13.77;;;;;;;16.79;42.20;92702.94;4992159;28;20183;-90
2023/12/06 01:21:28;;;;;;;16.30;12.75;;;;;;;16.84;42.00;92701.38;4963758;28;20122;-90
2023/12/06 01:23:54;;;;;;;16.25;12.23;;;;;;;16.75;42.31;92707.94;4949969;28;20100;-89
2023/12/06 01:26:20;;;;;;;18.40;12.45;;;;;;;16.76;41.63;92698.50;4969513;28;20045;-90
2023/12/06 01:28:45;;;;;;;15.95;12.05;;;;;;;16.75;41.82;92703.22;4988820;28;20038;-90
2023/12/06 01:31:11;;;;;;;18.38;12.20;;;;;;;16.79;41.96;92705.66;4986414;28;20037;-89
2023/12/06 01:33:36;;;;;;;16.67;12.85;;;;;;;16.75;42.30;92702.50;4970098;28;20454;-89
2023/12/06 01:36:02;;;;;;;14.90;10.55;;;;;;;16.82;41.88;92710.09;4986668;28;20053;-90
2023/12/06 01:38:27;;;;;;;17.05;12.77;;;;;;;16.75;42.03;92702.50;4906222;28;20541;-90
2023/12/06 01:40:53;;;;;;;15.73;11.88;;;;;;;16.80;41.58;92707.16;4879312;28;20574;-89
2023/12/06 01:43:18;;;;;;;15.15;11.80;;;;;;;16.78;42.05;92698.72;4880149;28;20907;-90
2023/12/06 01:45:43;;;;;;;16.27;11.73;;;;;;;16.70;41.96;92700.56;4893906;28;20189;-89
2023/12/06 01:48:10;;;;;;;15.10;11.57;;;;;;;16.77;41.89;92705.44;4884789;28;20050;-90
2023/12/06 01:50:36;;;;;;;15.27;11.70;;;;;;;16.82;42.14;92701.91;4863222;29;20050;-89
2023/12/06 01:53:01;;;;;;;15.63;11.60;;;;;;;16.84;41.49;92698.66;4895958;28;20042;-89
2023/12/06 01:55:27;;;;;;;15.38;11.32;;;;;;;16.89;41.55;92706.75;4888462;28;20090;-90
2023/12/06 01:57:52;;;;;;;14.60;11.27;;;;;;;16.81;41.91;92694.97;4893779;28;20129;-89
2023/12/06 02:00:18;;;;;;;15.43;11.85;;;;;;;16.79;41.92;92698.22;4921268;28;20044;-90
2023/12/06 02:02:44;;;;;;;15.77;12.65;;;;;;;16.73;41.92;92699.53;4895145;28;21003;-88
2023/12/06 02:05:11;;;;;;;15.63;11.88;;;;;;;16.76;42.20;92696.50;4909883;28;20102;-90
2023/12/06 02:07:36;;;;;;;13.60;10.43;;;;;;;16.82;42.08;92688.25;4911287;28;21682;-90
2023/12/06 02:10:02;;;;;;;16.13;11.77;;;;;;;16.82;41.72;92696.44;4921550;28;20109;-89
2023/12/06 02:12:27;;;;;;;13.77;10.70;;;;;;;16.87;41.89;92690.19;4934887;28;20204;-90
2023/12/06 02:14:53;;;;;;;13.45;10.65;;;;;;;16.83;42.11;92686.28;4934755;28;20042;-89
2023/12/06 02:17:18;;;;;;;14.80;11.30;;;;;;;16.83;42.13;92689.00;4921363;28;20078;-90
2023/12/06 02:19:44;;;;;;;13.32;10.23;;;;;;;16.76;41.73;92687.59;4937932;28;20498;-90
2023/12/06 02:22:09;;;;;;;14.25;11.02;;;;;;;16.76;41.76;92688.31;4935696;28;20076;-90
2023/12/06 02:24:35;;;;;;;14.38;11.88;;;;;;;16.80;41.65;92690.75;4938346;28;20049;-90
2023/12/06 02:27:00;;;;;;;13.95;10.43;;;;;;;16.75;41.82;92694.31;4935766;28;21448;-89
2023/12/06 02:29:26;;;;;;;13.88;10.45;;;;;;;16.78;41.80;92693.28;4936706;28;22108;-89
2023/12/06 02:31:51;;;;;;;17.02;10.95;;;;;;;16.76;41.77;92687.59;4937305;28;20143;-89
2023/12/06 02:34:21;;;;;;;11.93;9.55;;;;;;;16.78;41.76;92690.53;4939638;28;20038;-90
2023/12/06 02:36:48;;;;;;;13.32;9.85;;;;;;;16.85;41.44;92689.22;4905396;28;20975;-89
2023/12/06 02:39:15;;;;;;;14.98;10.45;;;;;;;16.84;41.67;92687.75;4907237;28;20057;-90
2023/12/06 02:41:40;;;;;;;12.57;9.80;;;;;;;16.82;41.71;92687.53;4870339;29;20538;-89
2023/12/06 02:44:06;;;;;;;15.05;10.57;;;;;;;16.81;41.81;92689.50;4882749;28;20081;-89
2023/12/06 02:46:31;;;;;;;12.02;9.55;;;;;;;16.84;41.73;92690.47;4914495;28;20069;-90
2023/12/06 02:48:57;;;;;;;11.48;9.18;;;;;;;16.87;41.69;92690.19;4914241;28;20057;-89
2023/12/06 02:51:23;;;;;;;15.48;10.30;;;;;;;16.92;41.57;92689.34;4898484;28;20054;-90
2023/12/06 02:53:49;;;;;;;13.35;10.52;;;;;;;16.79;42.04;92694.75;4914978;29;20136;-89
2023/12/06 02:56:17;;;;;;;11.20;8.43;;;;;;;16.80;41.79;92693.50;4904326;29;20126;-89
2023/12/06 02:58:43;;;;;;;11.73;9.65;;;;;;;16.80;41.79;92696.22;4884668;29;20087;-90
2023/12/06 03:01:09;;;;;;;15.82;10.35;;;;;;;16.68;41.91;92690.16;4900134;29;20043;-90
2023/12/06 03:03:34;;;;;;;14.35;10.27;;;;;;;16.75;41.97;92699.75;4901334;29;20489;-90
2023/12/06 03:06:00;;;;;;;12.57;8.95;;;;;;;16.77;41.43;92695.25;4902344;29;20034;-90
2023/12/06 03:08:27;;;;;;;12.80;9.63;;;;;;;16.67;42.38;92698.91;4885031;28;20046;-89
2023/12/06 03:10:52;;;;;;;11.60;9.63;;;;;;;16.78;41.69;92687.81;4909930;28;20039;-90
2023/12/06 03:13:18;;;;;;;12.38;9.43;;;;;;;16.77;41.82;92703.44;4911448;28;20051;-89
2023/12/06 03:15:43;;;;;;;12.32;9.02;;;;;;;16.83;41.73;92694.47;4910376;28;20057;-89
2023/12/06 03:18:09;;;;;;;13.32;9.70;;;;;;;16.70;41.87;92687.66;4911235;28;20991;-89
2023/12/06 03:20:34;;;;;;;12.40;8.95;;;;;;;16.82;41.33;92701.91;4917839;28;20153;-89
2023/12/06 03:23:00;;;;;;;11.15;9.00;;;;;;;16.82;41.50;92695.72;4912678;28;20052;-89
2023/12/06 03:25:25;;;;;;;11.18;8.73;;;;;;;16.83;41.77;92694.47;4919238;28;20951;-89
2023/12/06 03:27:51;;;;;;;11.00;8.88;;;;;;;16.79;41.96;92694.75;4911869;28;20046;-89
2023/12/06 03:30:16;;;;;;;12.25;9.52;;;;;;;16.81;41.78;92700.44;4922725;28;21208;-90
2023/12/06 03:32:43;;;;;;;13.32;9.55;;;;;;;16.71;41.84;92697.31;4917325;28;20084;-90
2023/12/06 03:35:08;;;;;;;11.93;9.43;;;;;;;16.79;41.72;92709.13;4892560;28;20053;-90
2023/12/06 03:37:33;;;;;;;13.40;9.10;;;;;;;16.76;41.61;92701.97;4936891;28;20356;-89
2023/12/06 03:39:59;;;;;;;10.88;8.88;;;;;;;16.78;41.92;92693.28;4924575;28;20042;-89
2023/12/06 03:42:25;;;;;;;13.93;9.05;;;;;;;16.75;41.56;92695.03;4955616;28;20056;-90
2023/12/06 03:44:50;;;;;;;12.73;8.80;;;;;;;16.84;41.75;92690.47;4941435;28;20904;-90
2023/12/06 03:47:15;;;;;;;11.73;9.23;;;;;;;16.81;41.88;92694.22;4945245;28;21936;-90
2023/12/06 03:49:41;;;;;;;11.82;9.32;;;;;;;16.76;41.92;92695.78;4942483;28;20049;-89
2023/12/06 03:52:08;;;;;;;11.65;9.50;;;;;;;16.76;41.77;92693.78;4973371;28;20053;-89
2023/12/06 03:54:33;;;;;;;11.65;8.73;;;;;;;16.79;41.66;92695.50;4958935;28;20030;-90
2023/12/06 03:56:59;;;;;;;11.48;8.70;;;;;;;16.81;41.88;92686.78;4927240;28;22113;-89
2023/12/06 03:59:25;;;;;;;10.38;8.10;;;;;;;16.84;41.79;92688.47;4941996;28;20041;-89
2023/12/06 04:01:50;;;;;;;11.48;8.80;;;;;;;16.85;41.49;92687.22;4942202;28;20135;-90
2023/12/06 04:04:16;;;;;;;12.02;8.57;;;;;;;16.87;41.75;92689.44;4967334;28;20360;-90
2023/12/06 04:06:43;;;;;;;11.85;8.32;;;;;;;16.82;41.66;92690.25;4988518;28;21367;-89
2023/12/06 04:09:10;;;;;;;10.80;7.65;;;;;;;16.83;41.39;92681.53;4981066;28;20045;-90
2023/12/06 04:11:36;;;;;;;11.70;8.20;;;;;;;16.86;41.19;92687.97;4963230;28;20036;-90
2023/12/06 04:14:02;;;;;;;12.60;10.05;;;;;;;16.77;41.76;92686.34;4944520;28;20086;-89
2023/12/06 04:16:28;;;;;;;10.70;8.45;;;;;;;16.81;41.59;92686.03;4968861;28;20033;-90
2023/12/06 04:18:54;;;;;;;11.90;7.85;;;;;;;16.89;41.49;92689.66;4968005;28;20039;-90
2023/12/06 04:21:21;;;;;;;12.32;8.55;;;;;;;16.73;41.92;92675.72;4961098;28;20033;-90
2023/12/06 04:23:48;;;;;;;9.57;7.65;;;;;;;16.82;41.39;92679.34;4992625;28;20029;-89
2023/12/06 04:26:13;;;;;;;11.50;8.50;;;;;;;16.73;41.95;92683.91;4971532;28;20039;-89
2023/12/06 04:28:39;;;;;;;10.88;8.20;;;;;;;16.83;41.86;92676.09;4963516;28;20109;-90
2023/12/06 04:31:04;;;;;;;12.88;8.48;;;;;;;16.78;42.19;92682.34;4998587;28;20052;-91
2023/12/06 04:33:30;;;;;;;11.38;8.07;;;;;;;16.87;41.69;92690.19;4993972;28;20043;-90
2023/12/06 04:35:55;;;;;;;13.13;9.50;;;;;;;16.93;43.01;92682.63;4985444;28;20045;-91
2023/12/06 04:38:21;;;;;;;265.58;157.77;;;;;;;16.94;42.08;92684.09;5002775;28;20041;-89
2023/12/06 04:40:47;;;;;;;20.17;14.05;;;;;;;16.91;41.49;92681.66;4995181;28;20061;-91
2023/12/06 04:43:12;;;;;;;17.58;11.45;;;;;;;16.95;41.85;92682.84;4988826;28;20032;-88
2023/12/06 04:45:38;;;;;;;79.78;67.57;;;;;;;16.96;42.18;92681.59;4964081;28;20223;-87
2023/12/06 04:48:04;;;;;;;17.58;11.13;;;;;;;16.97;41.80;92668.69;4955891;28;20048;-88
2023/12/06 04:50:29;;;;;;;19.88;11.43;;;;;;;16.84;42.35;92683.03;4967814;28;20105;-92
2023/12/06 04:52:56;;;;;;;24.52;13.63;;;;;;;16.90;41.83;92678.19;4951078;28;20060;-91
2023/12/06 04:55:21;;;;;;;19.60;12.07;;;;;;;16.95;41.73;92685.56;4962295;28;20041;-91
2023/12/06 04:57:47;;;;;;;28.88;14.50;;;;;;;16.84;41.77;92672.09;4936261;28;20492;-91
2023/12/06 05:00:13;;;;;;;29.48;15.45;;;;;;;16.78;42.32;92687.81;4957936;28;20045;-91
2023/12/06 05:02:39;;;;;;;34.00;16.98;;;;;;;16.75;42.03;92691.56;4933781;28;20041;-92
2023/12/06 05:05:16;;;;;;;58.10;22.92;;;;;;;16.83;41.54;92694.47;4944922;28;20029;-91
2023/12/06 05:07:43;;;;;;;31.60;16.02;;;;;;;16.82;41.47;92688.25;4959067;28;21709;-91
2023/12/06 05:10:08;;;;;;;40.13;20.02;;;;;;;16.79;41.75;92706.41;4954961;28;20789;-91
2023/12/06 05:12:39;;;;;;;39.50;20.50;;;;;;;16.76;42.52;92703.97;4960124;28;20045;-93
2023/12/06 05:15:06;;;;;;;;;;;;;;;16.68;39.98;92708.53;4984181;28;20044;-91
2023/12/06 05:17:31;;;;;;;23.48;15.23;;;;;;;16.53;38.63;92700.75;4969442;28;19936;-91
2023/12/06 05:19:57;;;;;;;32.15;15.07;;;;;;;16.30;37.37;92710.47;4910544;28;20300;-91
2023/12/06 05:22:22;;;;;;;25.98;14.13;;;;;;;16.11;36.68;92705.72;4922668;28;20633;-90
2023/12/06 05:24:48;;;;;;;68.80;19.17;;;;;;;16.08;37.16;92709.47;4894183;28;20046;-89
2023/12/06 05:27:14;;;;;;;61.22;19.88;;;;;;;16.22;37.66;92698.69;4884206;28;20334;-89
2023/12/06 05:29:40;;;;;;;57.88;22.63;;;;;;;16.35;37.57;92696.03;4906702;28;20972;-91
2023/12/06 05:32:06;;;;;;;66.72;21.23;;;;;;;16.35;38.19;92696.78;4944053;28;20034;-90
2023/12/06 05:34:32;;;;;;;58.63;19.80;;;;;;;16.35;39.11;92698.75;4940313;28;20245;-89
2023/12/06 05:36:57;;;;;;;48.08;19.05;;;;;;;16.39;39.23;92691.78;4930311;28;20122;-91
2023/12/06 05:39:25;;;;;;;130.63;74.20;;;;;;;16.49;39.98;92696.84;4936163;28;20037;-90
2023/12/06 05:41:52;;;;;;;145.73;83.93;;;;;;;16.63;40.82;92698.41;4923503;28;20049;-89
2023/12/06 05:44:17;;;;;;;49.50;21.50;;;;;;;16.68;39.96;92698.34;4923867;28;20087;-92
2023/12/06 05:46:43;;;;;;;47.90;20.30;;;;;;;16.64;40.35;92689.75;4935668;28;20042;-91
2023/12/06 05:53:38;;;;;;;43.22;21.70;;;;;;;16.63;40.22;92692.97;5017399;28;20048;-94
2023/12/06 05:56:05;;;;;;;61.25;27.05;;;;;;;16.55;40.28;92695.53;5042276;28;20132;-89
2023/12/06 05:58:30;;;;;;;93.10;35.78;;;;;;;16.63;40.09;92693.72;5003654;28;20029;-88
2023/12/06 06:00:56;;;;;;;102.53;37.80;;;;;;;16.65;40.16;92691.22;5006841;28;20442;-91
2023/12/06 06:03:35;;;;;;;105.53;37.55;;;;;;;16.65;40.67;92687.75;5015665;28;20032;-94
2023/12/06 06:06:29;;;;;;;108.95;39.22;;;;;;;16.61;40.56;92690.00;5023970;28;21294;-96
2023/12/06 06:08:55;;;;;;;95.40;42.53;;;;;;;16.73;40.04;92692.09;4914428;28;20890;-90
2023/12/06 06:12:20;;;;;;;80.03;32.88;;;;;;;16.73;40.30;92692.09;4895373;29;20756;-94
2023/12/06 06:14:45;;;;;;;90.00;34.65;;;;;;;16.72;39.91;92696.06;4897634;29;21110;-92
2023/12/06 06:17:42;;;;;;;91.35;40.67;;;;;;;16.71;40.46;92693.84;4879189;29;20044;-95
2023/12/06 06:20:10;;;;;;;102.15;43.90;;;;;;;16.65;40.53;92698.69;4884272;29;20047;-85
2023/12/06 06:22:39;;;;;;;114.43;46.83;;;;;;;16.74;40.10;92699.03;4887262;29;20043;-96
2023/12/06 06:25:24;;;;;;;108.63;44.00;;;;;;;16.75;40.65;92697.78;4845196;29;20728;-94
2023/12/06 06:27:49;;;;;;;102.30;46.63;;;;;;;16.83;40.52;92697.19;4859160;29;20051;-94
2023/12/06 06:30:17;;;;;;;106.90;49.47;;;;;;;16.85;40.19;92698.16;4833585;29;20044;-90
2023/12/06 06:32:43;;;;;;;129.95;69.22;;;;;;;16.85;40.14;92702.88;4850106;29;20814;-94
2023/12/06 06:35:10;;;;;;;139.00;68.80;;;;;;;16.79;40.54;92708.41;4827842;29;20048;-90
2023/12/06 06:37:35;;;;;;;132.82;65.40;;;;;;;16.92;40.38;92708.44;4827059;29;20121;-89
2023/12/06 06:40:01;;;;;;;154.45;82.65;;;;;;;16.89;40.67;92709.47;4829065;29;20056;-91
2023/12/06 06:42:26;;;;;;;184.68;90.53;;;;;;;16.81;40.72;92708.63;4889003;28;20050;-87
2023/12/06 06:44:52;;;;;;;209.35;97.97;;;;;;;16.80;40.96;92704.41;4843332;28;20133;-89
2023/12/06 06:47:17;;;;;;;201.30;99.10;;;;;;;16.87;40.58;92709.28;4867232;28;20218;-91
2023/12/06 06:49:45;;;;;;;170.38;94.28;;;;;;;16.96;40.18;92710.88;4883748;29;20050;-90
2023/12/06 06:52:14;;;;;;;198.82;100.43;;;;;;;16.95;40.13;92717.59;4888913;28;20484;-88
2023/12/06 06:54:40;;;;;;;201.35;101.60;;;;;;;16.94;40.59;92727.03;4893552;28;20163;-93
2023/12/06 06:57:05;;;;;;;182.32;92.68;;;;;;;16.90;40.13;92724.59;4891426;28;20231;-88
2023/12/06 06:59:31;;;;;;;203.63;105.75;;;;;;;16.92;40.72;92726.81;4942808;28;20060;-89
2023/12/06 07:01:56;;;;;;;218.10;109.28;;;;;;;16.95;40.72;92718.34;4953000;28;20029;-90
2023/12/06 07:04:22;;;;;;;247.93;124.70;;;;;;;16.93;40.85;92739.97;4969790;28;20033;-89
2023/12/06 07:06:49;;;;;;;221.50;113.00;;;;;;;17.01;40.47;92737.38;4962286;28;21549;-88
2023/12/06 07:09:14;;;;;;;222.52;110.65;;;;;;;16.96;40.58;92738.19;4974104;28;20038;-88
2023/12/06 07:11:39;;;;;;;207.95;112.88;;;;;;;17.06;41.11;92740.03;4942659;28;20088;-89
2023/12/06 07:14:05;;;;;;;188.45;104.60;;;;;;;17.11;40.64;92736.47;4955907;28;20120;-94
2023/12/06 07:16:30;;;;;;;188.55;103.35;;;;;;;17.07;40.42;92735.31;4952670;28;20109;-87
2023/12/06 07:18:57;;;;;;;180.65;97.20;;;;;;;17.06;40.21;92737.31;4939979;28;20176;-91
2023/12/06 07:21:25;;;;;;;172.75;99.60;;;;;;;16.99;40.56;92734.44;4933925;28;20070;-87
2023/12/06 07:23:51;;;;;;;178.60;98.95;;;;;;;17.01;40.50;92743.56;4938270;28;20037;-88
2023/12/06 07:26:18;;;;;;;178.98;97.97;;;;;;;16.97;40.78;92745.13;4961386;28;21030;-88
2023/12/06 07:28:44;;;;;;;189.10;94.68;;;;;;;17.02;40.51;92744.31;4945973;28;20072;-88
2023/12/06 07:31:09;;;;;;;172.82;90.43;;;;;;;17.08;40.83;92745.00;4979001;28;20042;-89
2023/12/06 07:33:35;;;;;;;153.77;80.68;;;;;;;17.10;40.43;92737.72;4968076;28;20097;-87
2023/12/06 07:36:01;;;;;;;157.27;87.47;;;;;;;17.04;40.67;92739.09;4959780;28;20041;-90
2023/12/06 07:38:27;;;;;;;175.68;91.22;;;;;;;17.12;40.52;92742.66;4996478;28;20103;-91
2023/12/06 07:40:53;;;;;;;174.80;90.55;;;;;;;17.09;40.73;92747.19;4961934;28;20045;-90
2023/12/06 07:43:19;;;;;;;218.77;119.43;;;;;;;16.96;40.77;92755.31;4960327;28;20272;-90
2023/12/06 07:45:47;;;;;;;189.18;95.60;;;;;;;16.94;40.91;92748.88;5003696;28;20049;-90
2023/12/06 07:48:17;;;;;;;169.38;87.30;;;;;;;16.97;40.62;92742.41;4991938;28;20291;-90
2023/12/06 07:50:42;;;;;;;165.23;90.25;;;;;;;17.01;40.65;92751.03;4980257;28;20142;-89
2023/12/06 07:53:14;;;;;;;189.05;91.78;;;;;;;17.01;40.57;92743.56;4985894;28;20109;-93
2023/12/06 07:55:51;;;;;;;;;;;;;;;;;;;;;
2023/12/06 08:03:32;;;;;;;180.23;92.10;;;;;;;16.92;40.72;92760.31;5050126;22;19955;-86
2023/12/06 08:05:59;;;;;;;252.00;120.03;;;;;;;17.01;40.84;92762.69;4995131;28;20805;-89
2023/12/06 08:08:26;;;;;;;227.25;112.68;;;;;;;17.05;40.58;92756.94;4957693;28;20551;-88
2023/12/06 08:10:52;;;;;;;206.48;105.82;;;;;;;16.98;40.45;92763.72;4943133;28;20128;-88
2023/12/06 08:13:18;;;;;;;210.77;102.20;;;;;;;16.99;40.89;92759.00;4948927;28;20055;-89
2023/12/06 08:15:44;;;;;;;186.48;99.07;;;;;;;17.05;40.79;92762.41;4963744;28;20033;-88
2023/12/06 08:18:09;;;;;;;199.93;102.88;;;;;;;17.17;40.55;92758.25;4933171;28;20553;-90
2023/12/06 08:20:35;;;;;;;215.30;112.65;;;;;;;17.18;40.88;92767.19;4950610;28;21109;-90
2023/12/06 08:23:03;;;;;;;203.10;108.53;;;;;;;17.14;40.34;92765.47;4964275;28;20045;-88
2023/12/06 08:25:29;;;;;;;251.15;119.50;;;;;;;17.10;40.82;92759.56;4947043;28;21003;-87
2023/12/06 08:27:54;;;;;;;239.48;118.53;;;;;;;17.04;40.46;92758.94;4946593;28;20044;-86
2023/12/06 08:30:20;;;;;;;235.25;106.90;;;;;;;17.19;40.72;92763.19;4945656;28;20048;-90
2023/12/06 08:32:46;;;;;;;249.52;124.70;;;;;;;17.12;41.02;92764.53;4950742;28;20048;-87
2023/12/06 08:35:12;;;;;;;253.60;123.20;;;;;;;17.08;40.88;92770.31;4979194;28;20044;-89
2023/12/06 08:37:40;;;;;;;238.38;122.30;;;;;;;17.07;41.00;92774.28;5005833;28;20107;-88
2023/12/06 08:40:09;;;;;;;283.30;128.85;;;;;;;17.08;41.14;92775.03;5024168;28;21331;-93
2023/12/06 08:42:37;;;;;;;266.92;121.97;;;;;;;17.16;40.95;92775.16;5028575;28;20972;-93
2023/12/06 08:45:03;;;;;;;258.30;126.03;;;;;;;17.15;40.96;92774.41;5015827;28;20420;-93
2023/12/06 08:47:28;;;;;;;250.13;124.95;;;;;;;17.07;41.25;92774.28;5032733;22;20059;-93
2023/12/06 08:49:54;;;;;;;254.75;126.18;;;;;;;17.17;40.98;92763.72;4993873;28;20043;-92
2023/12/06 08:54:47;;;;;;;250.95;125.43;;;;;;;17.19;41.08;92785.78;5133235;22;20060;-91
2023/12/06 08:57:13;;;;;;;231.50;121.53;;;;;;;17.15;40.75;92779.88;5025474;28;20040;-91
2023/12/06 08:59:41;;;;;;;249.13;125.65;;;;;;;17.22;40.90;92781.28;5026204;28;20059;-89
2023/12/06 09:05:22;;;;;;;;;;;;;;;;;;;;;
2023/12/06 09:07:48;;;;;;;246.65;121.10;;;;;;;17.16;41.25;92792.28;4888201;28;20408;-90
2023/12/06 09:10:13;;;;;;;217.85;117.70;;;;;;;17.15;41.02;92790.81;4949772;28;20043;-87
2023/12/06 09:12:51;;;;;;;224.80;105.65;;;;;;;17.10;41.22;92802.56;4929706;28;20043;-92
2023/12/06 09:15:18;;;;;;;199.52;108.43;;;;;;;17.14;41.28;92802.97;4908754;28;20619;-90
2023/12/06 09:18:00;;;;;;;175.45;97.65;;;;;;;17.17;41.06;92798.47;4921309;28;20083;-94
2023/12/06 09:20:54;;;;;;;173.43;94.22;;;;;;;17.20;41.23;92792.72;4894017;28;20039;-93
2023/12/06 09:23:20;;;;;;;181.57;96.85;;;;;;;17.20;40.90;92794.72;4915439;28;21401;-91
2023/12/06 09:25:49;;;;;;;182.95;98.05;;;;;;;17.21;40.83;92801.66;4925700;28;20035;-88
2023/12/06 09:28:23;;;;;;;195.23;107.50;;;;;;;17.15;41.42;92807.19;4927718;28;20327;-91
2023/12/06 09:30:48;;;;;;;205.98;112.53;;;;;;;17.18;41.01;92799.94;4939607;28;20720;-88
2023/12/06 09:33:17;;;;;;;223.93;116.40;;;;;;;17.20;41.16;92798.19;4904833;28;20050;-89
2023/12/06 09:35:45;;;;;;;202.15;109.13;;;;;;;17.19;41.04;92799.44;4943799;28;20109;-92
2023/12/06 09:38:12;;;;;;;215.65;107.07;;;;;;;17.11;41.47;92802.00;4917609;28;20070;-89
2023/12/06 09:40:37;;;;;;;222.88;115.57;;;;;;;17.12;40.96;92808.22;4908720;29;20067;-93
2023/12/06 09:43:03;;;;;;;223.95;110.43;;;;;;;17.24;41.18;92800.63;4950844;28;20485;-90
2023/12/06 09:45:37;;;;;;;252.50;124.80;;;;;;;17.19;41.32;92801.44;4953814;28;21337;-93
2023/12/06 09:48:05;;;;;;;315.27;161.18;;;;;;;17.22;40.97;92805.88;4971955;28;20137;-93
2023/12/06 09:50:36;;;;;;;237.05;123.97;;;;;;;17.13;41.20;92796.78;4957260;28;20056;-93
2023/12/06 09:53:02;;;;;;;275.60;140.88;;;;;;;17.16;41.14;92797.75;4938772;28;20030;-85
2023/12/06 09:55:35;;;;;;;233.35;119.20;;;;;;;17.25;41.15;92813.75;4937982;28;20072;-91
2023/12/06 09:58:02;;;;;;;207.93;115.68;;;;;;;17.11;41.30;92812.19;4962956;28;20064;-89
2023/12/06 10:00:29;;;;;;;199.95;113.30;;;;;;;17.23;41.10;92812.81;4984739;28;20260;-89
2023/12/06 10:02:57;;;;;;;195.77;111.68;;;;;;;17.17;41.03;92804.69;4965345;28;20699;-91
2023/12/06 10:05:25;;;;;;;215.25;112.07;;;;;;;17.23;41.13;92807.34;4964115;28;20045;-90
2023/12/06 10:07:51;;;;;;;230.05;111.18;;;;;;;17.20;41.19;92809.09;4948040;28;20045;-88
2023/12/06 10:10:33;;;;;;;204.73;109.22;;;;;;;17.16;41.47;92811.41;4982443;28;20045;-91
2023/12/06 10:12:59;;;;;;;214.85;111.93;;;;;;;17.22;41.04;92806.59;4972959;28;20148;-90
2023/12/06 10:15:28;;;;;;;243.80;116.18;;;;;;;17.26;41.02;92814.50;4975723;28;20102;-90
2023/12/06 10:18:02;;;;;;;262.52;135.05;;;;;;;17.30;41.05;92814.94;4993502;28;20041;-92
2023/12/06 10:20:36;;;;;;;251.20;126.60;;;;;;;17.31;41.24;92816.44;5035740;28;20044;-94
2023/12/06 10:23:06;;;;;;;213.85;112.13;;;;;;;17.31;40.88;92813.69;5064364;28;20028;-89
2023/12/06 10:25:40;;;;;;;218.05;114.90;;;;;;;17.16;41.73;92814.13;5038461;28;20220;-91
2023/12/06 10:28:07;;;;;;;227.35;120.95;;;;;;;17.27;41.50;92816.72;5010809;28;20036;-93
2023/12/06 10:30:33;;;;;;;210.32;117.43;;;;;;;17.22;41.37;92812.06;5005381;28;20051;-90
2023/12/06 10:32:59;;;;;;;229.95;120.85;;;;;;;17.18;41.41;92814.34;5011922;28;20531;-93
2023/12/06 10:35:29;;;;;;;222.65;118.30;;;;;;;17.28;41.22;92804.53;5006793;28;20047;-93
2023/12/06 10:37:57;;;;;;;245.98;127.25;;;;;;;17.26;41.34;92804.31;4996271;28;20999;-93
2023/12/06 10:43:16;;;;;;;231.65;122.93;;;;;;;17.24;41.15;92803.34;5090561;28;20077;-91
2023/12/06 10:46:32;;;;;;;226.95;119.97;;;;;;;17.27;41.36;92803.06;5032535;28;20050;-95
2023/12/06 10:54:51;;;;;;;200.40;114.63;;;;;;;17.30;41.15;92790.38;5095247;22;20068;-92
2023/12/06 11:02:33;;;;;;;186.85;104.97;;;;;;;17.28;41.35;92795.59;5430713;22;20060;-94
2023/12/06 11:07:54;;;;;;;180.32;98.93;;;;;;;17.26;41.47;92798.13;5070845;22;20047;-95
2023/12/06 11:11:04;;;;;;;174.43;93.32;;;;;;;17.21;41.54;92796.19;5041904;28;20044;-93
2023/12/06 11:14:03;;;;;;;163.55;85.53;;;;;;;17.23;41.83;92788.22;5028344;28;20031;-94
2023/12/06 11:16:37;;;;;;;169.35;86.97;;;;;;;17.31;41.64;92781.66;4998202;28;20042;-93
2023/12/06 11:19:04;;;;;;;151.07;83.07;;;;;;;17.31;41.53;92787.13;5028848;28;20059;-92
2023/12/06 11:21:42;;;;;;;136.32;74.72;;;;;;;17.32;41.20;92787.84;4998357;28;20036;-95
2023/12/06 11:24:11;;;;;;;130.40;75.47;;;;;;;17.30;41.31;92782.91;5034700;28;20032;-94
2023/12/06 11:26:45;;;;;;;143.40;88.40;;;;;;;17.31;41.41;92784.38;5024935;28;20028;-93
2023/12/06 11:29:12;;;;;;;126.90;74.80;;;;;;;17.34;41.16;92779.84;5033051;28;20050;-89
2023/12/06 11:31:37;;;;;;;225.32;153.80;;;;;;;17.37;41.70;92776.09;5019640;28;20085;-88
2023/12/06 11:34:09;;;;;;;146.00;85.28;;;;;;;17.39;41.21;92784.50;4996741;28;21549;-88
2023/12/06 11:36:37;;;;;;;686.03;504.55;;;;;;;17.45;41.44;92777.72;5056954;28;21682;-87
2023/12/06 11:39:24;;;;;;;259.10;183.15;;;;;;;17.41;41.62;92776.53;5043093;28;20035;-87
2023/12/06 11:41:50;;;;;;;133.80;76.55;;;;;;;17.45;41.50;92774.97;5060417;28;20044;-86
2023/12/06 11:44:17;;;;;;;104.70;66.82;;;;;;;17.41;41.23;92777.28;5012115;28;20043;-88
2023/12/06 11:46:53;;;;;;;89.75;54.17;;;;;;;17.48;40.93;92773.94;5018342;28;20070;-87
2023/12/06 11:49:27;;;;;;;87.75;58.33;;;;;;;17.42;41.32;92775.28;5049422;23;20070;-85
2023/12/06 11:51:59;;;;;;;88.05;56.33;;;;;;;17.32;41.14;92785.13;5015634;28;20040;-87